Latest Weather Observations for Parafield

IDS60901

Issued at 4:11 pm CDT Thursday 21 February 2019 (issued every 10 minutes, with the page automatically refreshed every 10 minutes)

About weather observations | Map of Adelaide area stations | Latest observations for Adelaide area | Other Formats
Station Details ID: 023013 Name: PARAFIELD AIRPORT Lat: -34.80 Lon: 138.63 Height: 9.5 m
Data from the previous 72 hours. | See also: Recent months at Parafield
Date/Time
CDT
Temp
°C
App
Temp
°C
Dew
Point
°C
Rel
Hum
%
Delta-T
°C
Wind Press
QNH
hPa
Press
MSL
hPa
Rain since
9am
mm
Dir  Spd
km/h
Gust
km/h
Spd
kts
Gust
kts
21/04:00pm 24.1 19.3 11.8 46 6.9 SW 28 35 15 19 1019.0 1019.0 0.0
21/03:30pm 25.2 20.7 11.4 42 7.8 SW 26 35 14 19 1019.4 1019.4 0.0
21/03:00pm 24.5 19.8 10.8 42 7.6 SW 26 35 14 19 1019.8 1019.8 0.0
21/02:30pm 24.7 18.9 10.9 42 7.7 W 32 39 17 21 1019.8 1019.8 0.0
21/02:00pm 25.6 20.9 10.6 39 8.4 WSW 26 35 14 19 1020.0 1020.0 0.0
21/01:52pm 25.9 22.6 10.9 39 8.4 SW 19 35 10 19 1020.0 1020.0 0.0
21/01:30pm 24.5 22.7 9.3 38 8.2 W 9 17 5 9 1020.4 1020.4 0.0
21/01:00pm 24.6 22.2 10.1 40 8.0 SSW 13 20 7 11 1020.7 1020.7 0.0
21/12:30pm 22.6 20.7 9.0 42 7.2 WSW 9 17 5 9 1021.2 1021.2 0.0
21/12:00pm 22.3 20.0 9.1 43 7.0 ESE 11 19 6 10 1021.5 1021.5 0.0
21/11:30am 22.0 19.3 10.2 47 6.4 ESE 15 22 8 12 1021.9 1021.8 0.0
21/11:00am 21.2 19.2 10.1 49 6.0 E 11 19 6 10 1021.9 1021.8 0.0
21/10:30am 20.9 19.1 10.7 52 5.6 ESE 11 17 6 9 1021.8 1021.7 0.0
21/10:00am 19.3 17.1 10.8 58 4.6 SE 13 15 7 8 1021.9 1021.8 0.0
21/09:30am 19.3 16.2 10.3 56 4.8 SSE 17 20 9 11 1021.7 1021.6 0.0
21/09:00am 18.9 16.8 11.2 61 4.2 SSE 13 20 7 11 1021.4 1021.4 0.0
21/08:30am 18.1 17.7 12.5 70 3.1 SSE 6 11 3 6 1021.1 1021.1 0.0
21/08:00am 17.3 17.2 13.2 77 2.3 E 6 6 3 3 1020.8 1020.8 0.0
21/07:30am 16.3 16.5 14.3 88 1.1 ENE 6 7 3 4 1020.3 1020.3 0.0
21/07:00am 13.9 13.6 12.8 93 0.6 SSW 6 6 3 3 1019.9 1019.9 0.0
21/06:30am 14.6 14.6 13.6 94 0.6 SSW 6 6 3 3 1019.7 1019.7 0.0
21/06:00am 14.7 14.4 12.6 87 1.1 SW 6 6 3 3 1019.4 1019.4 0.0
21/05:30am 15.1 15.9 12.6 85 1.4 CALM 0 0 0 0 1019.4 1019.4 0.0
21/05:00am 15.4 16.4 13.1 86 1.3 CALM 0 0 0 0 1019.2 1019.2 0.0
21/04:30am 14.9 15.9 13.1 89 1.0 CALM 0 0 0 0 1019.0 1019.0 0.0
21/04:00am 14.3 13.7 12.3 88 1.1 S 7 9 4 5 1018.9 1018.9 0.0
21/03:30am 13.8 13.0 11.7 87 1.1 SSW 7 9 4 5 1019.0 1019.0 0.0
21/03:00am 14.8 13.9 10.6 76 2.2 ESE 6 9 3 5 1019.0 1019.0 0.0
21/02:30am 15.8 15.3 12.5 81 1.8 S 7 7 4 4 1019.2 1019.2 0.0
21/02:00am 16.2 15.6 12.4 78 2.1 SSW 7 11 4 6 1019.3 1019.3 0.0
21/01:30am 15.1 14.1 11.1 77 2.1 SSW 7 9 4 5 1019.5 1019.5 0.0
21/01:00am 15.3 14.1 11.5 78 2.0 S 9 11 5 6 1019.5 1019.5 0.0
21/12:30am 15.6 14.2 10.8 73 2.5 SSW 9 11 5 6 1019.4 1019.4 0.0
21/12:00am 16.3 15.4 11.5 73 2.6 SSE 7 11 4 6 1019.2 1019.2 0.0
 
Date/Time
CDT
Temp
°C
App
Temp
°C
Dew
Point
°C
Rel
Hum
%
Delta-T
°C
Wind Press
QNH
hPa
Press
MSL
hPa
Rain since
9am
mm
Dir  Spd
km/h
Gust
km/h
Spd
kts
Gust
kts
20/11:30pm 16.8 15.1 11.3 70 3.0 SE 11 15 6 8 1019.2 1019.2 0.0
20/11:00pm 17.2 15.1 11.2 68 3.2 SSE 13 17 7 9 1019.3 1019.3 0.0
20/10:30pm 18.1 15.3 11.4 65 3.6 SSE 17 24 9 13 1019.3 1019.3 0.0
20/10:00pm 18.5 15.8 11.8 65 3.7 SSE 17 24 9 13 1019.2 1019.2 0.0
20/09:30pm 19.3 16.3 12.1 63 4.0 SSE 19 24 10 13 1018.7 1018.7 0.0
20/09:00pm 19.5 16.8 12.8 65 3.8 SSW 19 24 10 13 1018.3 1018.3 0.0
20/08:30pm 19.6 16.5 13.3 67 3.6 SSW 22 32 12 17 1018.1 1018.1 0.0
20/08:00pm 19.8 15.6 13.5 67 3.6 SSW 28 35 15 19 1017.7 1017.7 0.0
20/07:30pm 20.6 16.0 13.6 64 4.0 SSW 30 39 16 21 1017.5 1017.5 0.0
20/07:14pm 21.0 16.6 12.9 60 4.6 SSW 28 46 15 25 1017.3 1017.3 0.0
20/07:00pm 21.3 16.2 13.0 59 4.7 SSW 32 41 17 22 1017.3 1017.3 0.0
20/06:30pm 22.1 17.2 12.6 55 5.4 SW 30 43 16 23 1017.1 1017.1 0.0
20/06:00pm 23.1 18.0 11.8 49 6.4 SW 30 37 16 20 1016.9 1016.9 0.0
20/05:30pm 23.2 18.5 11.9 49 6.4 SW 28 35 15 19 1017.0 1017.0 0.0
20/05:00pm 23.2 18.4 11.6 48 6.5 SW 28 39 15 21 1017.0 1017.0 0.0
20/04:30pm 23.0 18.8 11.1 47 6.6 SSW 24 35 13 19 1017.0 1017.0 0.0
20/04:00pm 23.2 18.7 11.3 47 6.7 WSW 26 39 14 21 1017.1 1017.1 0.0
20/03:30pm 23.5 19.7 11.2 46 6.9 WSW 22 33 12 18 1017.3 1017.3 0.0
20/03:00pm 23.4 19.5 10.8 45 7.0 SW 22 32 12 17 1017.6 1017.6 0.0
20/02:30pm 23.5 19.4 10.2 43 7.3 W 22 33 12 18 1017.7 1017.7 0.0
20/02:00pm 23.4 19.5 10.8 45 7.0 WSW 22 32 12 17 1017.7 1017.7 0.0
20/01:30pm 22.7 19.1 9.8 44 7.0 SW 19 28 10 15 1017.8 1017.8 0.0
20/01:00pm 22.7 19.4 10.8 47 6.6 SW 19 26 10 14 1018.0 1018.0 0.0
20/12:30pm 21.9 19.3 10.7 49 6.1 WSW 15 24 8 13 1018.4 1018.4 0.0
20/12:00pm 21.2 18.0 11.2 53 5.5 SSW 19 24 10 13 1018.7 1018.7 0.0
20/11:30am 21.5 19.2 10.3 49 6.1 WSW 13 19 7 10 1018.7 1018.7 0.0
20/11:00am 20.9 18.4 9.8 49 6.0 SSW 13 20 7 11 1018.8 1018.8 0.0
20/10:30am 20.7 18.3 10.2 51 5.7 WSW 13 19 7 10 1018.7 1018.7 0.0
20/10:00am 19.5 17.9 10.2 55 5.0 WNW 9 15 5 8 1018.8 1018.8 0.0
20/09:30am 18.7 17.5 10.3 58 4.5 NW 7 9 4 5 1018.7 1018.7 0.0
20/09:00am 17.8 16.1 9.7 59 4.3 NNW 9 11 5 6 1018.5 1018.5 0.0
20/08:30am 17.1 15.9 9.5 61 4.0 N 6 9 3 5 1018.3 1018.3 0.0
20/08:00am 15.9 14.5 9.6 66 3.3 N 7 7 4 4 1018.0 1018.0 0.0
20/07:30am 15.3 13.8 9.2 67 3.1 N 7 9 4 5 1017.9 1017.9 0.0
20/07:00am 14.6 14.7 10.0 74 2.4 CALM 0 0 0 0 1017.4 1017.4 0.0
20/06:30am 13.4 13.2 8.9 74 2.3 CALM 0 0 0 0 1017.0 1017.0 0.0
20/06:00am 14.3 14.2 9.3 72 2.6 CALM 0 0 0 0 1016.8 1016.8 0.0
20/05:30am 14.7 14.5 8.9 68 2.9 CALM 0 0 0 0 1016.9 1016.9 0.0
20/05:00am 13.8 13.5 8.8 72 2.5 CALM 0 0 0 0 1016.9 1016.9 0.0
20/04:30am 14.5 14.2 8.7 68 2.9 CALM 0 0 0 0 1017.0 1017.0 0.0
20/04:00am 15.9 15.7 9.1 64 3.5 CALM 0 0 0 0 1016.8 1016.8 0.0
20/03:30am 16.2 15.8 9.6 65 3.4 NE 2 6 1 3 1017.0 1017.0 0.0
20/03:00am 15.8 14.6 9.7 67 3.2 ENE 6 7 3 4 1017.0 1017.0 0.0
20/02:30am 14.4 12.8 8.8 69 2.8 E 7 9 4 5 1017.0 1017.0 0.0
20/02:00am 14.5 14.4 9.3 71 2.7 CALM 0 0 0 0 1017.2 1017.2 0.0
20/01:30am 14.2 12.7 8.6 69 2.8 S 6 7 3 4 1017.1 1017.1 0.0
20/01:00am 14.5 12.9 8.9 69 2.8 SSW 7 7 4 4 1017.1 1017.1 0.0
20/12:30am 14.7 13.0 8.4 66 3.2 S 7 11 4 6 1017.0 1017.0 0.0
20/12:00am 15.1 13.5 8.6 65 3.3 SSE 7 9 4 5 1016.9 1016.9 0.0
 
Date/Time
CDT
Temp
°C
App
Temp
°C
Dew
Point
°C
Rel
Hum
%
Delta-T
°C
Wind Press
QNH
hPa
Press
MSL
hPa
Rain since
9am
mm
Dir  Spd
km/h
Gust
km/h
Spd
kts
Gust
kts
19/11:30pm 15.6 13.9 8.4 62 3.6 ESE 7 11 4 6 1017.0 1017.0 0.0
19/11:00pm 16.1 13.7 8.8 62 3.7 SE 11 15 6 8 1017.1 1017.1 0.0
19/10:30pm 16.0 13.8 9.2 64 3.5 S 11 13 6 7 1017.2 1017.2 0.0
19/10:00pm 16.9 14.7 9.3 61 4.0 S 11 13 6 7 1017.1 1017.1 0.0
19/09:30pm 18.3 15.4 9.6 57 4.6 SSW 15 20 8 11 1016.8 1016.8 0.0
19/09:00pm 18.6 15.3 9.7 56 4.7 SSW 17 26 9 14 1016.4 1016.4 0.0
19/08:30pm 19.0 14.8 9.8 55 4.9 SSW 22 28 12 15 1016.2 1016.2 0.0
19/08:00pm 19.3 15.0 9.5 53 5.2 SW 22 28 12 15 1016.0 1016.0 0.0
19/07:30pm 20.1 15.8 9.4 50 5.7 SSW 22 30 12 16 1015.7 1015.7 0.0
19/07:00pm 20.8 15.9 8.4 45 6.5 SSW 24 30 13 16 1015.4 1015.4 0.0
19/06:30pm 21.8 17.1 7.6 40 7.4 SW 22 30 12 16 1015.1 1015.1 0.0
19/06:00pm 22.8 18.1 6.1 34 8.5 SW 20 33 11 18 1015.0 1015.0 0.0
19/05:30pm 23.1 18.1 6.4 34 8.5 SW 22 28 12 15 1015.0 1015.0 0.0
19/05:00pm 22.7 18.0 6.0 34 8.5 SW 20 28 11 15 1014.9 1014.9 0.0
19/04:30pm 22.7 17.6 6.0 34 8.4 SW 22 30 12 16 1014.9 1014.9 0.0
19/04:00pm 23.1 17.8 6.8 35 8.4 WSW 24 32 13 17 1015.2 1015.2 0.0
19/03:30pm 23.2 18.0 7.3 36 8.3 SW 24 39 13 21 1015.4 1015.4 0.0
19/03:00pm 22.2 17.3 8.3 41 7.3 SW 24 32 13 17 1015.6 1015.6 0.0
19/02:30pm 22.7 18.2 10.2 45 6.8 WSW 24 39 13 21 1015.7 1015.7 0.0
19/02:00pm 22.0 17.3 9.2 44 6.8 SW 24 35 13 19 1015.9 1015.9 0.0
19/01:30pm 21.3 16.2 7.5 41 7.1 SW 24 35 13 19 1016.1 1016.1 0.0
19/01:00pm 23.1 18.0 7.6 37 8.1 WSW 24 33 13 18 1016.0 1016.0 0.0
19/12:30pm 21.6 16.7 7.1 39 7.4 SW 22 32 12 17 1016.2 1016.2 0.0
19/12:00pm 21.4 17.2 7.3 40 7.2 SW 19 26 10 14 1016.4 1016.4 0.0
19/11:30am 20.9 16.5 6.4 39 7.3 SW 19 28 10 15 1016.4 1016.4 0.0
19/11:00am 21.4 17.0 6.5 38 7.6 SW 19 26 10 14 1016.5 1016.5 0.0
19/10:30am 20.2 16.3 6.9 42 6.7 SSW 17 22 9 12 1016.4 1016.4 0.0
19/10:00am 19.5 15.6 6.9 44 6.4 S 17 22 9 12 1016.4 1016.4 0.0
19/09:30am 20.5 16.1 6.5 40 7.0 SSE 19 30 10 16 1016.1 1016.1 0.0
19/09:00am 18.9 14.4 7.0 46 6.0 SSE 20 28 11 15 1016.0 1016.0 0.0
19/08:30am 18.3 14.5 7.7 50 5.4 S 17 20 9 11 1015.9 1015.9 0.0
19/08:00am 17.9 15.3 7.9 52 5.1 S 11 17 6 9 1015.5 1015.5 0.0
19/07:30am 17.1 15.4 7.5 53 4.8 SE 6 9 3 5 1015.2 1015.2 0.0
19/07:00am 16.4 14.5 7.6 56 4.4 SE 7 9 4 5 1014.9 1014.9 0.0
19/06:30am 15.6 13.2 7.1 57 4.2 SE 9 13 5 7 1014.7 1014.7 0.0
19/06:00am 16.5 13.0 7.4 55 4.5 SSE 15 22 8 12 1014.7 1014.7 0.0
19/05:30am 16.5 13.1 7.7 56 4.4 S 15 20 8 11 1014.5 1014.5 0.0
19/05:00am 17.0 13.0 8.2 56 4.5 S 19 24 10 13 1014.4 1014.4 0.0
19/04:30am 17.3 13.6 7.9 54 4.8 S 17 28 9 15 1014.3 1014.3 0.0
19/04:00am 17.3 13.6 7.9 54 4.8 S 17 22 9 12 1014.2 1014.2 0.0
19/03:30am 17.4 13.8 8.3 55 4.7 S 17 24 9 13 1014.2 1014.2 0.0
19/03:00am 16.9 14.8 8.1 56 4.5 S 9 13 5 7 1014.3 1014.3 0.0
19/02:30am 16.3 13.4 8.3 59 4.1 S 13 17 7 9 1014.6 1014.6 0.0
19/02:00am 16.8 12.8 9.2 61 3.9 S 20 28 11 15 1014.8 1014.8 0.0
19/01:30am 17.0 13.4 9.9 63 3.7 S 19 24 10 13 1014.9 1014.9 0.0
19/01:00am 16.7 13.5 9.9 64 3.6 S 17 20 9 11 1015.0 1015.0 0.0
19/12:30am 15.5 12.9 9.4 67 3.1 S 13 19 7 10 1014.9 1014.9 0.0
19/12:00am 15.1 13.1 8.8 66 3.2 S 9 13 5 7 1014.9 1014.9 0.0
 
Date/Time
CDT
Temp
°C
App
Temp
°C
Dew
Point
°C
Rel
Hum
%
Delta-T
°C
Wind Press
QNH
hPa
Press
MSL
hPa
Rain since
9am
mm
Dir  Spd
km/h
Gust
km/h
Spd
kts
Gust
kts
18/11:30pm 16.1 13.1 9.1 63 3.6 S 15 17 8 9 1015.0 1015.0 0.0
18/11:00pm 16.2 13.1 8.9 62 3.7 S 15 17 8 9 1015.0 1015.0 0.0
18/10:30pm 17.0 13.0 8.9 59 4.2 S 20 28 11 15 1014.8 1014.8 0.0
18/10:00pm 17.3 13.3 9.0 58 4.3 S 20 28 11 15 1014.6 1014.6 0.0
18/09:30pm 17.8 13.8 9.2 57 4.5 S 20 30 11 16 1014.2 1014.2 0.0
18/09:00pm 18.4 14.5 9.5 56 4.7 S 20 30 11 16 1013.7 1013.7 0.0
18/08:30pm 19.3 15.3 9.2 52 5.3 SSW 20 30 11 16 1013.1 1013.1 0.0
18/08:00pm 20.0 15.4 8.0 46 6.2 SSW 22 32 12 17 1012.6 1012.6 0.0
18/07:30pm 21.1 15.9 9.0 46 6.4 SW 26 35 14 19 1012.0 1012.0 0.0
18/07:00pm 21.7 15.6 9.9 47 6.4 SW 32 43 17 23 1011.7 1011.7 0.0
18/06:30pm 22.1 15.9 9.9 46 6.6 SW 33 41 18 22 1011.3 1011.3 0.0
18/06:00pm 22.5 15.5 10.0 45 6.8 SW 37 44 20 24 1011.0 1011.0 0.0
18/05:30pm 23.7 17.5 9.3 40 7.8 SW 32 46 17 25 1010.7 1010.7 0.0
18/05:00pm 23.6 16.5 9.6 41 7.6 SW 37 50 20 27 1010.6 1010.6 0.0
18/04:46pm 22.8 15.2 9.2 42 7.3 SW 39 57 21 31 1010.4 1010.4 0.0
18/04:30pm 23.2 16.0 10.6 45 7.0 SW 39 52 21 28 1010.3 1010.3 0.0

Latest Capital City Observations: Canberra | Sydney | Melbourne | Brisbane | Adelaide | Perth | Hobart | Darwin

Other formats

Comma delimited format used in spreadsheet applications
http://www.bom.gov.au/fwo/IDS60901/IDS60901.95677.axf

JavaScript Object Notation format (JSON) in row-major order
http://www.bom.gov.au/fwo/IDS60901/IDS60901.95677.json

Data quality

Most of these data are generated automatically and are frequently updated. Quality checks on data are not normally performed. It is possible for incorrect values to appear. Refer to information at About Latest Weather Observations and please check the disclaimer before using these data.